createdAt,value
2018-04-11T00:00:32.010Z,9.33
2018-04-11T00:03:00.272Z,9.44
2018-04-11T00:05:28.551Z,9.41
2018-04-11T00:07:56.830Z,9.36
2018-04-11T00:10:25.079Z,9.38
2018-04-11T00:12:53.372Z,9.46
2018-04-11T00:15:21.624Z,9.41
2018-04-11T00:17:49.885Z,9.45
2018-04-11T00:20:18.912Z,9.40
2018-04-11T00:22:47.165Z,9.21
2018-04-11T00:25:16.212Z,9.34
2018-04-11T00:27:44.487Z,9.41
2018-04-11T00:30:12.763Z,9.34
2018-04-11T00:32:41.047Z,9.28
2018-04-11T00:35:09.314Z,9.22
2018-04-11T00:37:37.705Z,9.24
2018-04-11T00:40:05.991Z,9.25
2018-04-11T00:42:34.245Z,9.38
2018-04-11T00:45:02.533Z,9.22
2018-04-11T00:47:30.798Z,9.12
2018-04-11T00:49:59.045Z,9.17
2018-04-11T00:52:27.348Z,9.17
2018-04-11T00:54:55.637Z,9.04
2018-04-11T00:57:23.895Z,9.00
2018-04-11T00:59:52.159Z,8.98
2018-04-11T01:02:20.429Z,8.99
2018-04-11T01:04:48.705Z,9.01
2018-04-11T01:07:17.775Z,9.01
2018-04-11T01:09:46.052Z,9.13
2018-04-11T01:12:14.297Z,8.99
2018-04-11T01:14:42.597Z,9.02
2018-04-11T01:17:10.857Z,8.99
2018-04-11T01:19:39.111Z,8.97
2018-04-11T01:22:07.408Z,8.93
2018-04-11T01:24:35.685Z,9.02
2018-04-11T01:27:03.968Z,9.10
2018-04-11T01:29:32.232Z,8.98
2018-04-11T01:32:00.505Z,8.78
2018-04-11T01:34:28.810Z,8.79
2018-04-11T01:36:57.089Z,8.86
2018-04-11T01:39:25.348Z,8.90
2018-04-11T01:41:53.593Z,8.92
2018-04-11T01:44:21.883Z,9.04
2018-04-11T01:46:50.176Z,8.89
2018-04-11T01:49:18.456Z,8.86
2018-04-11T01:51:46.750Z,8.84
2018-04-11T01:54:14.997Z,8.85
2018-04-11T01:56:43.258Z,9.01
2018-04-11T01:59:11.533Z,8.91
2018-04-11T02:01:40.568Z,9.07
2018-04-11T02:04:08.837Z,8.97
2018-04-11T02:06:37.149Z,8.93
2018-04-11T02:09:05.413Z,8.90
2018-04-11T02:11:33.689Z,8.91
2018-04-11T02:14:01.967Z,8.82
2018-04-11T02:16:30.211Z,8.79
2018-04-11T02:18:58.482Z,8.73
2018-04-11T02:21:26.780Z,8.77
2018-04-11T02:23:55.023Z,8.95
2018-04-11T02:26:24.040Z,8.72
2018-04-11T02:28:52.338Z,8.64
2018-04-11T02:31:21.396Z,8.84
2018-04-11T02:33:50.412Z,8.74
2018-04-11T02:36:18.718Z,8.64
2018-04-11T02:38:46.965Z,8.49
2018-04-11T02:41:15.232Z,8.40
2018-04-11T02:43:43.524Z,8.61
2018-04-11T02:46:11.779Z,8.57
2018-04-11T02:48:40.061Z,8.67
2018-04-11T02:51:09.138Z,8.44
2018-04-11T02:53:38.211Z,8.36
2018-04-11T02:56:06.496Z,8.50
2018-04-11T02:58:34.781Z,8.57
2018-04-11T03:01:03.049Z,8.37
2018-04-11T03:03:31.322Z,8.21
2018-04-11T03:05:59.583Z,8.17
2018-04-11T03:08:27.832Z,8.14
2018-04-11T03:10:56.133Z,8.07
2018-04-11T03:13:24.407Z,8.00
2018-04-11T03:15:52.661Z,7.99
2018-04-11T03:18:20.964Z,8.02
2018-04-11T03:20:49.238Z,8.07
2018-04-11T03:23:17.514Z,8.24
2018-04-11T03:25:45.790Z,8.15
2018-04-11T03:28:14.061Z,8.20
2018-04-11T03:30:42.323Z,8.10
2018-04-11T03:33:10.607Z,8.09
2018-04-11T03:35:38.872Z,7.91
2018-04-11T03:38:07.170Z,8.06
2018-04-11T03:40:35.441Z,8.16
2018-04-11T03:43:03.746Z,8.20
2018-04-11T03:45:32.047Z,8.16
2018-04-11T03:48:00.302Z,7.95
2018-04-11T03:50:28.578Z,8.05
2018-04-11T03:52:56.875Z,8.03
2018-04-11T03:55:25.623Z,7.84
2018-04-11T03:57:53.872Z,7.87
2018-04-11T04:00:22.159Z,7.71
2018-04-11T04:02:50.429Z,7.87
2018-04-11T04:05:18.708Z,7.85
2018-04-11T04:07:47.020Z,7.89
2018-04-11T04:10:15.263Z,7.88
2018-04-11T04:12:43.530Z,7.85
2018-04-11T04:15:29.339Z,7.83
2018-04-11T04:18:15.316Z,7.72
2018-04-11T04:20:43.596Z,7.59
2018-04-11T04:23:12.647Z,7.49
2018-04-11T04:25:40.957Z,7.26
2018-04-11T04:28:09.205Z,7.25
2018-04-11T04:30:37.497Z,7.42
2018-04-11T04:33:05.789Z,7.31
2018-04-11T04:35:34.067Z,7.19
2018-04-11T04:38:02.317Z,7.36
2018-04-11T04:40:30.649Z,7.45
2018-04-11T04:42:58.931Z,7.49
2018-04-11T04:45:27.202Z,7.47
2018-04-11T04:47:55.495Z,7.36
2018-04-11T04:50:23.756Z,7.36
2018-04-11T04:52:52.017Z,7.22
2018-04-11T04:55:20.335Z,7.32
2018-04-11T04:57:48.619Z,7.41
2018-04-11T05:00:16.899Z,7.45
2018-04-11T05:02:45.184Z,7.39
2018-04-11T05:05:13.464Z,7.08
2018-04-11T05:07:41.766Z,7.01
2018-04-11T05:10:10.053Z,7.01
2018-04-11T05:12:38.330Z,7.14
2018-04-11T05:15:06.591Z,7.17
2018-04-11T05:17:34.870Z,7.19
2018-04-11T05:20:03.148Z,7.21
2018-04-11T05:22:31.410Z,7.20
2018-04-11T05:24:59.720Z,7.21
2018-04-11T05:27:27.969Z,7.11
2018-04-11T05:29:56.249Z,7.10
2018-04-11T05:32:24.575Z,7.32
2018-04-11T05:34:52.865Z,7.41
2018-04-11T05:37:21.120Z,7.41
2018-04-11T05:39:49.414Z,7.52
2018-04-11T05:42:17.689Z,7.52
2018-04-11T05:44:46.741Z,7.56
2018-04-11T05:47:15.023Z,7.56
2018-04-11T05:49:43.293Z,7.51
2018-04-11T05:52:11.560Z,7.51
2018-04-11T05:54:39.844Z,7.50
2018-04-11T05:57:08.108Z,7.59
2018-04-11T05:59:36.367Z,7.59
2018-04-11T06:02:04.678Z,7.56
2018-04-11T06:04:32.971Z,7.56
2018-04-11T06:07:01.233Z,7.51
2018-04-11T06:09:29.505Z,7.53
2018-04-11T06:11:57.759Z,7.60
2018-04-11T06:14:26.016Z,7.65
2018-04-11T06:16:55.082Z,7.68
2018-04-11T06:19:23.317Z,7.74
2018-04-11T06:21:51.561Z,7.82
2018-04-11T06:24:20.621Z,7.85
2018-04-11T06:26:48.893Z,7.88
2018-04-11T06:29:17.914Z,7.93
2018-04-11T06:31:46.223Z,7.97
2018-04-11T06:34:14.488Z,8.01
2018-04-11T06:36:42.752Z,8.07
2018-04-11T06:39:11.053Z,8.02
2018-04-11T06:41:39.297Z,8.11
2018-04-11T06:44:07.563Z,8.16
2018-04-11T06:46:35.867Z,8.23
2018-04-11T06:49:04.914Z,8.17
2018-04-11T06:51:33.195Z,8.23
2018-04-11T06:54:01.479Z,8.36
2018-04-11T06:56:29.738Z,8.43
2018-04-11T06:58:58.019Z,8.54
2018-04-11T07:01:26.302Z,8.64
2018-04-11T07:03:54.598Z,8.72
2018-04-11T07:06:22.849Z,8.83
2018-04-11T07:08:51.140Z,8.83
2018-04-11T07:11:19.385Z,8.97
2018-04-11T07:13:47.659Z,9.02
2018-04-11T07:16:15.948Z,9.09
2018-04-11T07:18:44.210Z,9.16
2018-04-11T07:21:12.488Z,9.29
2018-04-11T07:23:40.752Z,9.44
2018-04-11T07:26:09.008Z,9.45
2018-04-11T07:28:37.287Z,9.49
2018-04-11T07:31:05.582Z,9.57
2018-04-11T07:33:33.859Z,9.72
2018-04-11T07:36:02.889Z,9.92
2018-04-11T07:38:31.179Z,10.05
2018-04-11T07:40:59.466Z,10.18
2018-04-11T07:43:27.735Z,10.30
2018-04-11T07:45:56.022Z,10.47
2018-04-11T07:48:24.299Z,10.63
2018-04-11T07:50:52.564Z,10.76
2018-04-11T07:53:20.847Z,10.92
2018-04-11T07:55:50.029Z,11.02
2018-04-11T07:58:18.329Z,11.16
2018-04-11T08:00:46.590Z,11.26
2018-04-11T08:03:14.899Z,11.36
2018-04-11T08:05:43.159Z,11.44
2018-04-11T08:08:11.416Z,11.53
2018-04-11T08:10:39.700Z,11.61
2018-04-11T08:13:07.963Z,11.70
2018-04-11T08:15:36.258Z,11.77
2018-04-11T08:18:04.564Z,11.83
2018-04-11T08:20:32.804Z,11.91
2018-04-11T08:23:01.101Z,12.01
2018-04-11T08:25:29.411Z,12.11
2018-04-11T08:27:57.686Z,12.18
2018-04-11T08:30:25.999Z,12.24
2018-04-11T08:32:54.273Z,12.31
2018-04-11T08:35:22.564Z,12.37
2018-04-11T08:37:50.842Z,12.43
2018-04-11T08:40:19.136Z,12.48
2018-04-11T08:42:47.417Z,12.54
2018-04-11T08:45:15.690Z,12.62
2018-04-11T08:47:44.002Z,12.69
2018-04-11T08:50:12.267Z,12.75
2018-04-11T08:52:40.590Z,12.75
2018-04-11T08:55:08.895Z,12.82
2018-04-11T08:57:37.177Z,12.86
2018-04-11T09:00:05.469Z,12.95
2018-04-11T09:02:33.745Z,13.00
2018-04-11T09:05:01.998Z,13.04
2018-04-11T09:07:30.415Z,13.14
2018-04-11T09:09:58.691Z,13.22
2018-04-11T09:12:26.996Z,13.28
2018-04-11T09:14:55.266Z,13.33
2018-04-11T09:17:23.545Z,13.40
2018-04-11T09:19:51.833Z,13.47
2018-04-11T09:22:20.092Z,13.53
2018-04-11T09:24:48.388Z,13.58
2018-04-11T09:27:16.660Z,13.65
2018-04-11T09:29:44.920Z,13.71
2018-04-11T09:32:13.206Z,13.79
2018-04-11T09:34:41.480Z,13.84
2018-04-11T09:37:09.768Z,13.95
2018-04-11T09:39:38.066Z,14.00
2018-04-11T09:42:06.335Z,14.04
2018-04-11T09:44:34.625Z,14.10
2018-04-11T09:47:04.189Z,14.15
2018-04-11T09:49:32.490Z,14.23
2018-04-11T09:52:02.257Z,14.25
2018-04-11T09:54:30.543Z,14.37
2018-04-11T09:56:58.853Z,14.36
2018-04-11T09:59:27.106Z,14.41
2018-04-11T10:01:55.395Z,14.44
2018-04-11T10:04:23.659Z,14.47
2018-04-11T10:06:51.977Z,14.50
2018-04-11T10:09:20.238Z,14.51
2018-04-11T10:11:48.551Z,14.55
2018-04-11T10:14:16.779Z,14.54
2018-04-11T10:16:45.079Z,14.59
2018-04-11T10:19:13.360Z,14.63
2018-04-11T10:21:41.665Z,14.64
2018-04-11T10:24:10.073Z,14.68
2018-04-11T10:26:38.339Z,14.78
2018-04-11T10:29:06.626Z,14.83
2018-04-11T10:31:34.896Z,14.92
2018-04-11T10:34:03.179Z,15.00
2018-04-11T10:36:31.462Z,15.15
2018-04-11T10:38:59.746Z,15.14
2018-04-11T10:41:28.100Z,15.07
2018-04-11T10:43:56.363Z,15.08
2018-04-11T10:46:25.422Z,15.11
2018-04-11T10:48:54.624Z,15.28
2018-04-11T10:51:22.906Z,15.26
2018-04-11T10:53:51.227Z,15.35
2018-04-11T10:56:19.504Z,15.57
2018-04-11T10:58:48.532Z,15.68
2018-04-11T11:01:16.887Z,15.99
2018-04-11T11:03:45.151Z,16.07
2018-04-11T11:06:13.433Z,16.13
2018-04-11T11:08:41.735Z,16.19
2018-04-11T11:11:10.938Z,16.25
2018-04-11T11:13:39.197Z,16.31
2018-04-11T11:16:07.497Z,16.39
2018-04-11T11:18:35.777Z,16.50
2018-04-11T11:21:04.046Z,16.45
2018-04-11T11:23:32.335Z,16.45
2018-04-11T11:26:01.404Z,16.58
2018-04-11T11:28:29.670Z,16.77
2018-04-11T11:30:58.715Z,16.79
2018-04-11T11:33:26.974Z,16.74
2018-04-11T11:35:55.283Z,16.72
2018-04-11T11:38:23.551Z,16.79
2018-04-11T11:40:51.845Z,16.82
2018-04-11T11:43:20.128Z,16.79
2018-04-11T11:45:48.386Z,16.82
2018-04-11T11:48:16.664Z,16.76
2018-04-11T11:50:44.943Z,16.79
2018-04-11T11:53:13.239Z,16.81
2018-04-11T11:55:41.530Z,16.71
2018-04-11T11:58:10.615Z,16.75
2018-04-11T12:00:38.896Z,16.72
2018-04-11T12:03:07.182Z,16.72
2018-04-11T12:05:35.438Z,16.70
2018-04-11T12:08:03.723Z,16.66
2018-04-11T12:10:31.986Z,16.56
2018-04-11T12:13:00.261Z,16.56
2018-04-11T12:15:28.574Z,16.55
2018-04-11T12:17:57.631Z,16.59
2018-04-11T12:20:25.956Z,16.59
2018-04-11T12:22:54.201Z,16.54
2018-04-11T12:25:22.482Z,16.53
2018-04-11T12:27:50.784Z,16.59
2018-04-11T12:30:19.820Z,16.62
2018-04-11T12:32:48.091Z,16.61
2018-04-11T12:35:16.368Z,16.62
2018-04-11T12:37:44.662Z,16.63
2018-04-11T12:40:12.935Z,16.59
2018-04-11T12:42:41.227Z,16.59
2018-04-11T12:45:09.490Z,16.60
2018-04-11T12:47:37.763Z,16.63
2018-04-11T12:50:06.051Z,16.66
2018-04-11T12:52:34.321Z,16.70
2018-04-11T12:55:02.585Z,16.82
2018-04-11T12:57:30.885Z,16.93
2018-04-11T12:59:59.148Z,17.06
2018-04-11T13:02:28.202Z,17.20
2018-04-11T13:04:56.490Z,17.24
2018-04-11T13:07:25.526Z,17.35
2018-04-11T13:09:53.804Z,17.39
2018-04-11T13:12:22.100Z,17.49
2018-04-11T13:14:50.382Z,17.62
2018-04-11T13:17:18.633Z,17.76
2018-04-11T13:19:46.945Z,17.76
2018-04-11T13:22:15.206Z,17.65
2018-04-11T13:24:43.453Z,17.63
2018-04-11T13:27:11.741Z,17.73
2018-04-11T13:29:40.041Z,17.80
2018-04-11T13:32:08.349Z,17.88
2018-04-11T13:34:36.659Z,17.88
2018-04-11T13:37:04.946Z,17.97
2018-04-11T13:39:33.235Z,18.05
2018-04-11T13:42:01.492Z,18.10
2018-04-11T13:44:29.782Z,18.19
2018-04-11T13:46:58.114Z,18.30
2018-04-11T13:49:26.386Z,18.35
2018-04-11T13:51:54.670Z,18.21
2018-04-11T13:54:22.974Z,18.11
2018-04-11T13:56:51.253Z,18.02
2018-04-11T13:59:20.307Z,17.97
2018-04-11T14:01:48.605Z,17.85
2018-04-11T14:04:16.873Z,17.99
2018-04-11T14:06:45.162Z,18.07
2018-04-11T14:09:13.453Z,17.98
2018-04-11T14:11:42.475Z,17.97
2018-04-11T14:14:10.767Z,17.86
2018-04-11T14:16:39.815Z,17.93
2018-04-11T14:19:08.860Z,17.80
2018-04-11T14:21:37.141Z,17.80
2018-04-11T14:24:05.406Z,18.70
2018-04-11T14:26:33.678Z,19.30
2018-04-11T14:29:01.944Z,19.68
2018-04-11T14:31:30.236Z,19.90
2018-04-11T14:33:58.511Z,20.32
2018-04-11T14:36:26.806Z,20.55
2018-04-11T14:38:55.100Z,20.72
2018-04-11T14:41:23.365Z,20.68
2018-04-11T14:43:51.630Z,20.92
2018-04-11T14:46:20.356Z,21.12
2018-04-11T14:48:48.625Z,20.57
2018-04-11T14:51:16.938Z,20.21
2018-04-11T14:53:46.697Z,20.70
2018-04-11T14:56:15.001Z,20.93
2018-04-11T14:58:43.301Z,21.00
2018-04-11T15:01:11.621Z,21.13
2018-04-11T15:03:39.898Z,21.61
2018-04-11T15:06:08.166Z,21.77
2018-04-11T15:08:36.444Z,21.96
2018-04-11T15:11:05.514Z,21.91
2018-04-11T15:13:33.801Z,21.88
2018-04-11T15:16:02.872Z,21.68
2018-04-11T15:18:31.247Z,21.54
2018-04-11T15:20:59.561Z,21.04
2018-04-11T15:23:30.450Z,20.70
2018-04-11T15:25:58.736Z,20.56
2018-04-11T15:28:27.032Z,20.70
2018-04-11T15:30:55.295Z,20.96
2018-04-11T15:33:23.612Z,21.20
2018-04-11T15:35:52.645Z,21.25
2018-04-11T15:38:20.905Z,21.23
2018-04-11T15:40:49.192Z,21.10
2018-04-11T15:43:17.486Z,21.35
2018-04-11T15:45:45.789Z,21.48
2018-04-11T15:48:14.094Z,21.96
2018-04-11T15:50:42.430Z,22.03
2018-04-11T15:53:10.669Z,22.13
2018-04-11T15:55:38.944Z,22.14
2018-04-11T15:58:07.685Z,22.06
2018-04-11T16:00:35.934Z,22.13
2018-04-11T16:03:04.212Z,22.16
2018-04-11T16:05:32.508Z,22.38
2018-04-11T16:08:00.777Z,22.42
2018-04-11T16:10:29.547Z,22.25
2018-04-11T16:12:58.771Z,21.86
2018-04-11T16:15:27.037Z,21.29
2018-04-11T16:17:55.330Z,20.64
2018-04-11T16:20:23.607Z,20.52
2018-04-11T16:22:51.894Z,20.33
2018-04-11T16:25:20.223Z,19.96
2018-04-11T16:27:48.516Z,19.65
2018-04-11T16:30:16.803Z,19.47
2018-04-11T16:32:45.076Z,19.30
2018-04-11T16:35:13.342Z,19.19
2018-04-11T16:37:41.634Z,18.98
2018-04-11T16:40:09.902Z,18.91
2018-04-11T16:42:38.193Z,18.74
2018-04-11T16:45:06.498Z,18.58
2018-04-11T16:47:34.764Z,18.46
2018-04-11T16:50:03.056Z,18.34
2018-04-11T16:52:31.312Z,18.20
2018-04-11T16:54:59.592Z,18.15
2018-04-11T16:57:27.876Z,18.12
2018-04-11T16:59:56.187Z,17.95
2018-04-11T17:02:24.494Z,17.77
2018-04-11T17:04:53.318Z,17.76
2018-04-11T17:07:21.625Z,17.66
2018-04-11T17:09:49.908Z,17.59
2018-04-11T17:12:18.218Z,17.51
2018-04-11T17:14:46.544Z,17.48
2018-04-11T17:17:14.811Z,17.49
2018-04-11T17:19:43.134Z,17.38
2018-04-11T17:22:29.089Z,17.42
2018-04-11T17:25:14.858Z,17.29
2018-04-11T17:28:00.809Z,17.20
2018-04-11T17:30:46.706Z,17.05
2018-04-11T17:33:14.978Z,17.04
2018-04-11T17:35:44.032Z,16.98
2018-04-11T17:38:12.338Z,16.94
2018-04-11T17:40:41.379Z,16.86
2018-04-11T17:43:09.665Z,16.88
2018-04-11T17:45:37.938Z,16.89
2018-04-11T17:48:08.275Z,16.73
2018-04-11T17:50:36.601Z,16.74
2018-04-11T17:53:04.906Z,16.68
2018-04-11T17:55:33.226Z,16.61
2018-04-11T17:58:01.511Z,16.53
2018-04-11T18:00:29.828Z,16.51
2018-04-11T18:02:58.125Z,16.43
2018-04-11T18:05:27.176Z,16.43
2018-04-11T18:07:55.937Z,16.38
2018-04-11T18:10:24.216Z,16.22
2018-04-11T18:12:53.404Z,16.18
2018-04-11T18:15:21.703Z,16.14
2018-04-11T18:17:49.977Z,16.03
2018-04-11T18:20:18.784Z,15.92
2018-04-11T18:22:47.062Z,15.82
2018-04-11T18:25:15.346Z,15.70
2018-04-11T18:27:43.627Z,15.54
2018-04-11T18:30:12.685Z,15.49
2018-04-11T18:32:40.954Z,15.46
2018-04-11T18:35:09.257Z,15.21
2018-04-11T18:37:37.543Z,15.00
2018-04-11T18:40:05.815Z,15.05
2018-04-11T18:42:34.195Z,14.86
2018-04-11T18:45:02.445Z,14.71
2018-04-11T18:47:30.746Z,14.66
2018-04-11T18:49:59.011Z,14.52
2018-04-11T18:52:27.275Z,14.34
2018-04-11T18:54:56.624Z,14.22
2018-04-11T18:57:24.941Z,14.18
2018-04-11T18:59:53.213Z,13.98
2018-04-11T19:02:25.263Z,13.96
2018-04-11T19:04:53.523Z,13.85
2018-04-11T19:07:26.875Z,13.76
2018-04-11T19:09:55.111Z,13.57
2018-04-11T19:12:23.400Z,13.42
2018-04-11T19:14:51.710Z,13.28
2018-04-11T19:17:19.986Z,13.45
2018-04-11T19:19:48.261Z,13.26
2018-04-11T19:22:16.590Z,13.19
2018-04-11T19:24:45.650Z,13.09
2018-04-11T19:27:13.929Z,12.93
2018-04-11T19:29:42.238Z,12.90
2018-04-11T19:32:12.185Z,12.91
2018-04-11T19:34:40.623Z,12.79
2018-04-11T19:37:10.575Z,12.66
2018-04-11T19:39:39.624Z,12.70
2018-04-11T19:42:07.945Z,12.66
2018-04-11T19:44:36.999Z,12.71
2018-04-11T19:47:05.274Z,12.54
2018-04-11T19:49:33.550Z,12.44
2018-04-11T19:52:01.825Z,12.23
2018-04-11T19:54:30.171Z,12.24
2018-04-11T19:56:58.434Z,12.27
2018-04-11T19:59:26.714Z,12.22
2018-04-11T20:01:54.990Z,12.16
2018-04-11T20:04:23.288Z,12.07
2018-04-11T20:06:51.562Z,12.15
2018-04-11T20:09:19.855Z,11.84
2018-04-11T20:11:48.136Z,11.75
2018-04-11T20:14:16.425Z,11.87
2018-04-11T20:16:44.738Z,11.75
2018-04-11T20:19:13.041Z,11.77
2018-04-11T20:21:41.327Z,11.55
2018-04-11T20:24:09.604Z,11.54
2018-04-11T20:26:37.896Z,11.58
2018-04-11T20:29:06.898Z,11.75
2018-04-11T20:31:35.172Z,11.49
2018-04-11T20:34:03.659Z,11.41
2018-04-11T20:36:32.041Z,11.44
2018-04-11T20:39:00.343Z,11.37
2018-04-11T20:41:28.701Z,11.25
2018-04-11T20:43:57.093Z,11.17
2018-04-11T20:46:25.379Z,11.19
2018-04-11T20:48:53.660Z,11.30
2018-04-11T20:51:21.936Z,11.26
2018-04-11T20:53:50.237Z,11.16
2018-04-11T20:56:18.522Z,11.18
2018-04-11T20:58:46.809Z,11.20
2018-04-11T21:01:16.022Z,11.17
2018-04-11T21:03:44.732Z,10.99
2018-04-11T21:06:13.016Z,11.23
2018-04-11T21:08:41.748Z,11.11
2018-04-11T21:11:10.094Z,10.97
2018-04-11T21:13:38.338Z,10.96
2018-04-11T21:16:06.627Z,11.16
2018-04-11T21:18:34.920Z,11.09
2018-04-11T21:21:03.195Z,11.17
2018-04-11T21:23:31.592Z,11.06
2018-04-11T21:25:59.867Z,11.10
2018-04-11T21:28:28.135Z,11.11
2018-04-11T21:30:56.430Z,11.10
2018-04-11T21:33:24.706Z,11.18
2018-04-11T21:35:52.977Z,11.21
2018-04-11T21:38:21.287Z,11.27
2018-04-11T21:40:49.546Z,11.21
2018-04-11T21:43:17.884Z,11.04
2018-04-11T21:45:46.176Z,11.06
2018-04-11T21:48:14.446Z,11.03
2018-04-11T21:50:42.820Z,10.90
2018-04-11T21:53:11.114Z,10.81
2018-04-11T21:55:39.367Z,10.66
2018-04-11T21:58:07.625Z,10.65
2018-04-11T22:00:35.940Z,10.74
2018-04-11T22:03:04.308Z,10.58
2018-04-11T22:05:32.581Z,10.70
2018-04-11T22:08:00.838Z,10.64
2018-04-11T22:10:29.876Z,10.62
2018-04-11T22:12:58.143Z,10.71
2018-04-11T22:15:27.479Z,10.64
2018-04-11T22:17:55.781Z,10.53
2018-04-11T22:20:24.048Z,10.42
2018-04-11T22:22:52.320Z,10.34
2018-04-11T22:25:20.618Z,10.31
2018-04-11T22:27:49.657Z,10.47
2018-04-11T22:30:17.954Z,10.33
2018-04-11T22:32:46.223Z,10.17
2018-04-11T22:35:14.479Z,10.14
2018-04-11T22:37:42.779Z,10.13
2018-04-11T22:40:11.066Z,10.27
2018-04-11T22:42:39.377Z,10.24
2018-04-11T22:45:08.436Z,10.27
2018-04-11T22:47:36.681Z,10.23
2018-04-11T22:50:04.979Z,10.25
2018-04-11T22:52:33.246Z,10.21
2018-04-11T22:55:01.558Z,10.15
2018-04-11T22:57:29.826Z,10.04
2018-04-11T22:59:59.097Z,10.02
2018-04-11T23:02:27.385Z,9.89
2018-04-11T23:04:55.687Z,10.08
2018-04-11T23:07:23.999Z,10.03
2018-04-11T23:09:53.148Z,9.97
2018-04-11T23:12:21.414Z,9.98
2018-04-11T23:14:49.704Z,9.84
2018-04-11T23:17:17.969Z,9.86
2018-04-11T23:19:46.998Z,9.74
2018-04-11T23:22:17.009Z,9.63
2018-04-11T23:24:45.251Z,9.46
2018-04-11T23:27:13.543Z,9.56
2018-04-11T23:29:41.858Z,9.49
2018-04-11T23:32:10.113Z,9.67
2018-04-11T23:34:38.403Z,9.51
2018-04-11T23:37:06.663Z,9.54
2018-04-11T23:39:35.116Z,9.45
2018-04-11T23:42:03.406Z,9.59
2018-04-11T23:44:31.671Z,9.69
2018-04-11T23:46:59.961Z,9.63
2018-04-11T23:49:28.209Z,9.35
2018-04-11T23:51:56.484Z,9.37
2018-04-11T23:54:25.524Z,9.37
2018-04-11T23:56:53.774Z,9.30
2018-04-11T23:59:22.060Z,9.32
